»·PEaware :: SWA5175 KSLC-KDEN

SWA5175 :: KSLC-KDEN

FLIGHT INFORMATION

Flight Status: Arrived
Operator:
Southwest Airlines
More flights by this operator :: More flights under this callsign
Pilot: Nehseem A. (13724)
Aircraft: BOEING 737-800
(B738)
More flights by this aircraft type
Origin: KSLC Salt Lake City Intl
United States
Destination: KDEN Denver Intl
United States
More flights between these airports :: More routes between these airports
Route: +NSIGN5 CHE FRNCH3
File this flight plan on PilotEdge
Remarks:
Altitude:
(Current/Filed)
35,000ft
Speed:
(Current/Filed)
454kts
Departed: 03-May-18 07:14 PM
Arrived: 03-May-18 08:22 PM
Distance/Time
Traveled:
339nm/1:08
Distance/Time
To Go:
Arrived

Flight Plot

Page will automatically refresh every two minutes.

Flight plan parsing failed; only flown route is shown


Map Options




Map Legend


Flown Route
Filed Route
Departure Airport
Arrival Airport
Navaid (VOR, NDB)
Fix

Horizontal Profiles

Position Reports

Time Latitude Longitude Heading Altitude Ground
Speed
03-May-18 18:48 40.788399 -111.985403 73 4235ft 0kts
03-May-18 18:49 40.788399 -111.985403 73 4235ft 0kts
03-May-18 18:50 40.788399 -111.985403 73 4235ft 0kts
03-May-18 18:51 40.788399 -111.985403 73 4235ft 0kts
03-May-18 18:52 40.788399 -111.985403 73 4235ft 0kts
03-May-18 18:53 40.788399 -111.985403 73 4235ft 0kts
03-May-18 18:54 40.788399 -111.985403 73 4235ft 0kts
03-May-18 18:55 40.788249 -111.986052 72 4235ft 2kts
03-May-18 18:56 40.788197 -111.987080 117 4235ft 2kts
03-May-18 18:57 40.788298 -111.987269 132 4235ft 0kts
03-May-18 18:58 40.788298 -111.987269 132 4235ft 0kts
03-May-18 18:59 40.788297 -111.987268 132 4235ft 0kts
03-May-18 19:00 40.788296 -111.987266 132 4235ft 0kts
03-May-18 19:01 40.788022 -111.987258 211 4235ft 1kts
03-May-18 19:02 40.789617 -111.987163 10 4235ft 11kts
03-May-18 19:03 40.790765 -111.987000 355 4235ft 0kts
03-May-18 19:04 40.791448 -111.986018 83 4235ft 9kts
03-May-18 19:05 40.791775 -111.980697 85 4235ft 18kts
03-May-18 19:06 40.791987 -111.977564 87 4235ft 5kts
03-May-18 19:09 40.779691 -111.975775 175 4235ft 15kts
03-May-18 19:10 40.775120 -111.975236 167 4235ft 15kts
03-May-18 19:11 40.774478 -111.974105 67 4235ft 0kts
03-May-18 19:12 40.775169 -111.973140 9 4235ft 10kts
03-May-18 19:14 40.797230 -111.975614 357 4285ft 165kts
03-May-18 19:15 40.847060 -111.982366 351 7002ft 202kts
03-May-18 19:16 40.912176 -111.990302 353 9358ft 281kts
03-May-18 19:17 40.996335 -112.002445 351 11730ft 321kts
03-May-18 19:18 41.086577 -112.018891 358 14447ft 336kts
03-May-18 19:19 41.154418 -111.946386 77 17107ft 350kts
03-May-18 19:20 41.133926 -111.820778 98 19693ft 365kts
03-May-18 19:21 41.061386 -111.720848 150 21712ft 403kts
03-May-18 19:22 40.962653 -111.644725 139 23799ft 417kts
03-May-18 19:23 40.917294 -111.510688 93 25762ft 409kts
03-May-18 19:24 40.905851 -111.361416 93 28107ft 405kts
03-May-18 19:25 40.887903 -111.215601 93 30202ft 401kts
03-May-18 19:26 40.869895 -111.068899 92 31665ft 410kts
03-May-18 19:27 40.851622 -110.918547 92 32963ft 418kts
03-May-18 19:28 40.833270 -110.765590 92 34126ft 426kts
03-May-18 19:29 40.814065 -110.609264 92 35147ft 434kts
03-May-18 19:30 40.794166 -110.448884 92 35321ft 452kts
03-May-18 19:31 40.781528 -110.346937 93 35309ft 450kts
03-May-18 19:32 40.760617 -110.183722 93 35291ft 450kts
03-May-18 19:33 40.740247 -110.021009 90 35278ft 448kts
03-May-18 19:34 40.728955 -109.858087 89 35266ft 447kts
03-May-18 19:35 40.717254 -109.694331 90 35255ft 448kts
03-May-18 19:36 40.705496 -109.531004 90 35251ft 449kts
03-May-18 19:37 40.693632 -109.367140 90 35248ft 448kts
03-May-18 19:38 40.681364 -109.204103 90 35250ft 448kts
03-May-18 19:39 40.668774 -109.040833 91 35251ft 449kts
03-May-18 19:40 40.655842 -108.876547 91 35249ft 450kts
03-May-18 19:41 40.642714 -108.712845 91 35265ft 450kts
03-May-18 19:42 40.629326 -108.548918 92 35273ft 451kts
03-May-18 19:43 40.615656 -108.384389 92 35275ft 451kts
03-May-18 19:44 40.601797 -108.220168 92 35282ft 453kts
03-May-18 19:45 40.587641 -108.055752 92 35279ft 453kts
03-May-18 19:46 40.573235 -107.891040 92 35278ft 450kts
03-May-18 19:47 40.558720 -107.727604 92 35282ft 452kts
03-May-18 19:48 40.544188 -107.563638 93 35280ft 452kts
03-May-18 19:49 40.528884 -107.398939 93 35283ft 454kts
03-May-18 19:50 40.515602 -107.234412 90 35298ft 453kts
03-May-18 19:51 40.507184 -107.068585 91 35309ft 455kts
03-May-18 19:52 40.498071 -106.902814 91 35333ft 456kts
03-May-18 19:53 40.489233 -106.737316 91 33562ft 454kts
03-May-18 19:54 40.480074 -106.571446 92 31155ft 449kts
03-May-18 19:55 40.470433 -106.410295 92 28754ft 436kts
03-May-18 19:56 40.461362 -106.257651 92 27249ft 398kts
03-May-18 19:57 40.452234 -106.110515 92 24744ft 408kts
03-May-18 19:58 40.441104 -105.962880 98 22244ft 399kts
03-May-18 19:59 40.418808 -105.825106 99 20097ft 374kts
03-May-18 20:00 40.397852 -105.694082 98 17891ft 359kts
03-May-18 20:01 40.378393 -105.571383 98 17068ft 329kts
03-May-18 20:02 40.357321 -105.450547 108 17047ft 340kts
03-May-18 20:03 40.302157 -105.350288 127 16212ft 341kts
03-May-18 20:04 40.250924 -105.270677 127 15525ft 330kts
03-May-18 20:05 40.191519 -105.177737 126 15031ft 323kts
03-May-18 20:06 40.131922 -105.084357 126 14441ft 334kts
03-May-18 20:07 40.073183 -104.993016 126 13640ft 325kts
03-May-18 20:08 40.015030 -104.903032 126 13070ft 316kts
03-May-18 20:09 39.955597 -104.818110 147 12677ft 324kts
03-May-18 20:10 39.877589 -104.804848 184 11832ft 320kts
03-May-18 20:11 39.802791 -104.808519 182 11059ft 298kts
03-May-18 20:12 39.725785 -104.810590 181 11028ft 270kts
03-May-18 20:13 39.648015 -104.812773 181 10070ft 284kts
03-May-18 20:14 39.570928 -104.809025 157 9153ft 269kts
03-May-18 20:15 39.543876 -104.730844 66 8067ft 245kts
03-May-18 20:16 39.594717 -104.697328 6 7903ft 205kts
03-May-18 20:17 39.651091 -104.687091 7 7700ft 201kts
03-May-18 20:18 39.703431 -104.673926 9 7695ft 174kts
03-May-18 20:19 39.750545 -104.662709 8 7007ft 174kts
03-May-18 20:19 39.789821 -104.660879 1 6247ft 165kts
03-May-18 20:20 39.834815 -104.660482 1 5445ft 155kts
03-May-18 20:21 39.852240 -104.661090 329 5439ft 9kts
03-May-18 20:22 39.855637 -104.662433 335 5439ft 12kts
03-May-18 20:23 39.855897 -104.668346 270 5439ft 16kts
03-May-18 20:24 39.854513 -104.668973 180 5439ft 0kts
03-May-18 20:25 39.854512 -104.668973 180 5439ft 0kts

Navigation Log

Ident Type
Flight plan parsing failed, navigation log unavailable